sensor_id;sensor_type;location;lat;lon;timestamp;pressure;altitude;pressure_sealevel;temperature;humidity
19508;BME280;40157;42.566;27.526;2023-09-19T00:01:06;101332.72;;;21.82;65.31
19508;BME280;40157;42.566;27.526;2023-09-19T00:03:12;101336.28;;;21.81;65.40
19508;BME280;40157;42.566;27.526;2023-09-19T00:05:13;101329.22;;;21.80;65.34
19508;BME280;40157;42.566;27.526;2023-09-19T00:07:14;101329.22;;;21.80;65.53
19508;BME280;40157;42.566;27.526;2023-09-19T00:09:16;101322.09;;;21.79;65.54
19508;BME280;40157;42.566;27.526;2023-09-19T00:11:16;101318.59;;;21.77;65.41
19508;BME280;40157;42.566;27.526;2023-09-19T00:13:17;101307.03;;;21.75;65.35
19508;BME280;40157;42.566;27.526;2023-09-19T00:15:19;101302.63;;;21.74;65.49
19508;BME280;40157;42.566;27.526;2023-09-19T00:17:20;101316.88;;;21.73;65.34
19508;BME280;40157;42.566;27.526;2023-09-19T00:19:20;101316.88;;;21.73;65.82
19508;BME280;40157;42.566;27.526;2023-09-19T00:21:21;101315.13;;;21.72;66.00
19508;BME280;40157;42.566;27.526;2023-09-19T00:23:22;101313.31;;;21.74;66.19
19508;BME280;40157;42.566;27.526;2023-09-19T00:25:23;101311.53;;;21.73;66.03
19508;BME280;40157;42.566;27.526;2023-09-19T00:27:23;101311.53;;;21.73;66.33
19508;BME280;40157;42.566;27.526;2023-09-19T00:29:25;101302.75;;;21.68;66.25
19508;BME280;40157;42.566;27.526;2023-09-19T00:31:29;101306.25;;;21.70;66.51
19508;BME280;40157;42.566;27.526;2023-09-19T00:33:30;101305.41;;;21.68;66.63
19508;BME280;40157;42.566;27.526;2023-09-19T00:35:30;101306.34;;;21.67;66.85
19508;BME280;40157;42.566;27.526;2023-09-19T00:37:31;101306.25;;;21.70;66.66
19508;BME280;40157;42.566;27.526;2023-09-19T00:39:31;101290.25;;;21.70;66.96
19508;BME280;40157;42.566;27.526;2023-09-19T00:41:32;101290.19;;;21.73;66.39
19508;BME280;40157;42.566;27.526;2023-09-19T00:43:35;101296.47;;;21.72;66.57
19508;BME280;40157;42.566;27.526;2023-09-19T00:45:37;101288.44;;;21.72;66.35
19508;BME280;40157;42.566;27.526;2023-09-19T00:47:49;101297.28;;;21.74;66.74
19508;BME280;40157;42.566;27.526;2023-09-19T00:49:49;101293.78;;;21.72;66.38
19508;BME280;40157;42.566;27.526;2023-09-19T00:51:50;101299.16;;;21.70;66.51
19508;BME280;40157;42.566;27.526;2023-09-19T00:53:52;101293.84;;;21.69;66.59
19508;BME280;40157;42.566;27.526;2023-09-19T00:55:54;101298.22;;;21.71;66.57
19508;BME280;40157;42.566;27.526;2023-09-19T00:57:56;101297.34;;;21.71;66.58
19508;BME280;40157;42.566;27.526;2023-09-19T00:59:57;101300.91;;;21.70;66.43
19508;BME280;40157;42.566;27.526;2023-09-19T01:01:58;101294.72;;;21.69;66.50
19508;BME280;40157;42.566;27.526;2023-09-19T01:04:00;101293.84;;;21.69;66.67
19508;BME280;40157;42.566;27.526;2023-09-19T01:06:01;101295.59;;;21.70;66.61
19508;BME280;40157;42.566;27.526;2023-09-19T01:08:02;101299.19;;;21.69;66.64
19508;BME280;40157;42.566;27.526;2023-09-19T01:10:04;101286.75;;;21.68;66.55
19508;BME280;40157;42.566;27.526;2023-09-19T01:12:06;101292.94;;;21.68;66.83
19508;BME280;40157;42.566;27.526;2023-09-19T01:14:49;101288.50;;;21.69;66.59
19508;BME280;40157;42.566;27.526;2023-09-19T01:17:29;101290.34;;;21.67;66.67
19508;BME280;40157;42.566;27.526;2023-09-19T01:26:53;101283.50;;;21.53;67.46
19508;BME280;40157;42.566;27.526;2023-09-19T01:31:33;101287.16;;;21.46;67.69
19508;BME280;40157;42.566;27.526;2023-09-19T01:34:02;101281.91;;;21.40;67.87
19508;BME280;40157;42.566;27.526;2023-09-19T01:36:04;101287.34;;;21.37;68.06
19508;BME280;40157;42.566;27.526;2023-09-19T01:38:06;101284.72;;;21.35;68.16
19508;BME280;40157;42.566;27.526;2023-09-19T01:40:17;101287.41;;;21.34;68.26
19508;BME280;40157;42.566;27.526;2023-09-19T01:42:35;101282.06;;;21.34;68.42
19508;BME280;40157;42.566;27.526;2023-09-19T01:46:58;101274.97;;;21.33;68.60
19508;BME280;40157;42.566;27.526;2023-09-19T01:51:32;101274.03;;;21.35;68.62
19508;BME280;40157;42.566;27.526;2023-09-19T01:53:36;101273.13;;;21.35;68.94
19508;BME280;40157;42.566;27.526;2023-09-19T01:55:43;101276.69;;;21.37;69.34
19508;BME280;40157;42.566;27.526;2023-09-19T01:58:15;101274.84;;;21.39;69.44
19508;BME280;40157;42.566;27.526;2023-09-19T02:00:18;101279.25;;;21.40;69.68
19508;BME280;40157;42.566;27.526;2023-09-19T02:02:21;101285.47;;;21.42;69.60
19508;BME280;40157;42.566;27.526;2023-09-19T02:04:22;101283.69;;;21.41;69.94
19508;BME280;40157;42.566;27.526;2023-09-19T02:06:23;101287.19;;;21.43;70.09
19508;BME280;40157;42.566;27.526;2023-09-19T02:08:25;101284.47;;;21.48;69.77
19508;BME280;40157;42.566;27.526;2023-09-19T02:10:26;101280.91;;;21.49;69.86
19508;BME280;40157;42.566;27.526;2023-09-19T02:12:27;101287.09;;;21.51;69.74
19508;BME280;40157;42.566;27.526;2023-09-19T02:14:27;101283.56;;;21.50;69.46
19508;BME280;40157;42.566;27.526;2023-09-19T02:16:29;101258.94;;;21.34;69.37
19508;BME280;40157;42.566;27.526;2023-09-19T02:18:30;101286.22;;;21.50;69.32
19508;BME280;40157;42.566;27.526;2023-09-19T02:20:31;101289.69;;;21.54;69.34
19508;BME280;40157;42.566;27.526;2023-09-19T02:22:33;101283.50;;;21.53;69.04
19508;BME280;40157;42.566;27.526;2023-09-19T02:24:33;101281.66;;;21.55;69.10
19508;BME280;40157;42.566;27.526;2023-09-19T02:26:34;101266.66;;;21.47;69.21
19508;BME280;40157;42.566;27.526;2023-09-19T02:28:36;101275.38;;;21.58;69.13
19508;BME280;40157;42.566;27.526;2023-09-19T02:30:37;101281.63;;;21.58;69.19
19508;BME280;40157;42.566;27.526;2023-09-19T02:32:37;101283.34;;;21.59;69.07
19508;BME280;40157;42.566;27.526;2023-09-19T02:34:38;101290.47;;;21.60;69.25
19508;BME280;40157;42.566;27.526;2023-09-19T02:36:42;101285.13;;;21.60;69.12
19508;BME280;40157;42.566;27.526;2023-09-19T02:38:44;101281.63;;;21.58;69.45
19508;BME280;40157;42.566;27.526;2023-09-19T02:40:44;101274.44;;;21.60;69.27
19508;BME280;40157;42.566;27.526;2023-09-19T02:42:46;101276.34;;;21.55;69.43
19508;BME280;40157;42.566;27.526;2023-09-19T02:44:49;101276.28;;;21.58;69.70
19508;BME280;40157;42.566;27.526;2023-09-19T02:46:50;101273.56;;;21.60;69.31
19508;BME280;40157;42.566;27.526;2023-09-19T02:48:50;101267.28;;;21.62;69.52
19508;BME280;40157;42.566;27.526;2023-09-19T02:50:51;101269.03;;;21.64;69.30
19508;BME280;40157;42.566;27.526;2023-09-19T02:52:52;101264.59;;;21.62;69.16
19508;BME280;40157;42.566;27.526;2023-09-19T02:54:52;101260.13;;;21.63;68.77
19508;BME280;40157;42.566;27.526;2023-09-19T02:56:53;101267.22;;;21.66;68.79
19508;BME280;40157;42.566;27.526;2023-09-19T02:58:55;101265.38;;;21.68;68.68
19508;BME280;40157;42.566;27.526;2023-09-19T03:00:56;101259.22;;;21.66;68.76
19508;BME280;40157;42.566;27.526;2023-09-19T03:02:56;101266.31;;;21.67;68.40
19508;BME280;40157;42.566;27.526;2023-09-19T03:04:57;101261.88;;;21.66;68.25
19508;BME280;40157;42.566;27.526;2023-09-19T03:07:00;101253.94;;;21.62;68.26
19508;BME280;40157;42.566;27.526;2023-09-19T03:09:01;101254.84;;;21.61;68.65
19508;BME280;40157;42.566;27.526;2023-09-19T03:11:03;101255.69;;;21.64;68.48
19508;BME280;40157;42.566;27.526;2023-09-19T03:13:06;101260.16;;;21.61;68.60
19508;BME280;40157;42.566;27.526;2023-09-19T03:15:09;101253.94;;;21.62;68.34
19508;BME280;40157;42.566;27.526;2023-09-19T03:17:10;101252.22;;;21.60;68.46
19508;BME280;40157;42.566;27.526;2023-09-19T03:19:10;101262.03;;;21.58;68.58
19508;BME280;40157;42.566;27.526;2023-09-19T03:21:11;101263.88;;;21.54;68.46
19508;BME280;40157;42.566;27.526;2023-09-19T03:23:12;101263.88;;;21.54;68.83
19508;BME280;40157;42.566;27.526;2023-09-19T03:25:13;101266.56;;;21.54;68.77
19508;BME280;40157;42.566;27.526;2023-09-19T03:27:14;101257.69;;;21.54;68.80
19508;BME280;40157;42.566;27.526;2023-09-19T03:29:16;101260.31;;;21.55;68.91
19508;BME280;40157;42.566;27.526;2023-09-19T03:31:17;101237.38;;;21.45;68.94
19508;BME280;40157;42.566;27.526;2023-09-19T03:33:17;101268.28;;;21.57;68.72
19508;BME280;40157;42.566;27.526;2023-09-19T03:35:18;101267.41;;;21.56;68.88
19508;BME280;40157;42.566;27.526;2023-09-19T03:37:18;101261.19;;;21.56;69.01
19508;BME280;40157;42.566;27.526;2023-09-19T03:39:19;101270.97;;;21.57;68.84
19508;BME280;40157;42.566;27.526;2023-09-19T03:41:19;101270.03;;;21.58;68.99
19508;BME280;40157;42.566;27.526;2023-09-19T03:43:20;101263.88;;;21.54;69.16
19508;BME280;40157;42.566;27.526;2023-09-19T03:45:20;101271.91;;;21.54;68.84
19508;BME280;40157;42.566;27.526;2023-09-19T03:47:21;101275.53;;;21.52;69.22
19508;BME280;40157;42.566;27.526;2023-09-19T03:49:22;101274.69;;;21.47;69.14
19508;BME280;40157;42.566;27.526;2023-09-19T03:51:22;101285.47;;;21.42;69.34
19508;BME280;40157;42.566;27.526;2023-09-19T03:53:23;101269.53;;;21.37;69.49
19508;BME280;40157;42.566;27.526;2023-09-19T03:55:23;101272.28;;;21.33;69.33
19508;BME280;40157;42.566;27.526;2023-09-19T03:57:23;101266.16;;;21.28;69.78
19508;BME280;40157;42.566;27.526;2023-09-19T03:59:24;101275.06;;;21.26;69.79
19508;BME280;40157;42.566;27.526;2023-09-19T04:01:24;101271.63;;;21.21;69.90
19508;BME280;40157;42.566;27.526;2023-09-19T04:03:26;101270.75;;;21.21;69.89
19508;BME280;40157;42.566;27.526;2023-09-19T04:05:34;101278.84;;;21.16;69.96
19508;BME280;40157;42.566;27.526;2023-09-19T04:07:35;101275.38;;;21.11;70.20
19508;BME280;40157;42.566;27.526;2023-09-19T04:09:35;101282.56;;;21.07;70.24
19508;BME280;40157;42.566;27.526;2023-09-19T04:11:36;101285.31;;;21.03;70.65
19508;BME280;40157;42.566;27.526;2023-09-19T04:13:36;101285.34;;;21.00;70.78
19508;BME280;40157;42.566;27.526;2023-09-19T04:15:37;101284.50;;;20.98;70.91
19508;BME280;40157;42.566;27.526;2023-09-19T04:17:37;101286.38;;;20.93;71.18
19508;BME280;40157;42.566;27.526;2023-09-19T04:19:38;101289.94;;;20.92;71.35
19508;BME280;40157;42.566;27.526;2023-09-19T04:21:38;101294.44;;;20.89;71.46
19508;BME280;40157;42.566;27.526;2023-09-19T04:23:39;101290.91;;;20.87;71.41
19508;BME280;40157;42.566;27.526;2023-09-19T04:25:40;101292.75;;;20.84;71.70
19508;BME280;40157;42.566;27.526;2023-09-19T04:27:41;101283.94;;;20.80;71.95
19508;BME280;40157;42.566;27.526;2023-09-19T04:29:41;101279.47;;;20.82;72.12
19508;BME280;40157;42.566;27.526;2023-09-19T04:31:42;101275.03;;;20.81;72.20
19508;BME280;40157;42.566;27.526;2023-09-19T04:33:44;101278.63;;;20.80;72.30
19508;BME280;40157;42.566;27.526;2023-09-19T04:35:44;101268.94;;;20.73;72.63
19508;BME280;40157;42.566;27.526;2023-09-19T04:37:45;101269.75;;;20.78;73.21
19508;BME280;40157;42.566;27.526;2023-09-19T04:39:45;101267.91;;;20.83;73.73
19508;BME280;40157;42.566;27.526;2023-09-19T04:41:46;101265.16;;;20.86;73.79
19508;BME280;40157;42.566;27.526;2023-09-19T04:43:48;101257.09;;;20.91;73.87
19508;BME280;40157;42.566;27.526;2023-09-19T04:45:49;101256.16;;;20.94;74.06
19508;BME280;40157;42.566;27.526;2023-09-19T04:47:51;101259.56;;;21.02;74.26
19508;BME280;40157;42.566;27.526;2023-09-19T04:49:51;101264.75;;;21.08;74.28
19508;BME280;40157;42.566;27.526;2023-09-19T04:51:51;101273.50;;;21.16;74.21
19508;BME280;40157;42.566;27.526;2023-09-19T04:53:53;101265.50;;;21.16;74.32
19508;BME280;40157;42.566;27.526;2023-09-19T04:55:53;101259.16;;;21.23;74.32
19508;BME280;40157;42.566;27.526;2023-09-19T04:57:55;101265.28;;;21.29;74.21
19508;BME280;40157;42.566;27.526;2023-09-19T04:59:56;101259.88;;;21.32;74.46
19508;BME280;40157;42.566;27.526;2023-09-19T05:01:56;101273.03;;;21.41;74.30
19508;BME280;40157;42.566;27.526;2023-09-19T05:03:56;101261.41;;;21.43;74.28
19508;BME280;40157;42.566;27.526;2023-09-19T05:05:58;101271.09;;;21.49;74.38
19508;BME280;40157;42.566;27.526;2023-09-19T05:07:58;101270.06;;;21.56;74.64
19508;BME280;40157;42.566;27.526;2023-09-19T05:09:59;101259.34;;;21.58;74.46
19508;BME280;40157;42.566;27.526;2023-09-19T05:12:00;101273.44;;;21.66;74.95
19508;BME280;40157;42.566;27.526;2023-09-19T05:14:00;101271.53;;;21.71;75.08
19508;BME280;40157;42.566;27.526;2023-09-19T05:16:04;101274.06;;;21.79;74.94
19508;BME280;40157;42.566;27.526;2023-09-19T05:18:04;101264.97;;;21.86;74.89
19508;BME280;40157;42.566;27.526;2023-09-19T05:20:07;101275.47;;;21.95;75.05
19508;BME280;40157;42.566;27.526;2023-09-19T05:22:16;101269.06;;;22.03;74.70
19508;BME280;40157;42.566;27.526;2023-09-19T05:24:17;101266.34;;;22.06;75.06
19508;BME280;40157;42.566;27.526;2023-09-19T05:26:17;101262.75;;;22.07;74.90
19508;BME280;40157;42.566;27.526;2023-09-19T05:28:18;101264.38;;;22.14;74.98
19508;BME280;40157;42.566;27.526;2023-09-19T05:30:18;101262.53;;;22.16;74.54
19508;BME280;40157;42.566;27.526;2023-09-19T05:32:20;101264.22;;;22.20;74.51
19508;BME280;40157;42.566;27.526;2023-09-19T05:34:20;101268.63;;;22.21;74.20
19508;BME280;40157;42.566;27.526;2023-09-19T05:36:21;101265.91;;;22.24;73.82
19508;BME280;40157;42.566;27.526;2023-09-19T05:38:21;101269.38;;;22.29;74.21
19508;BME280;40157;42.566;27.526;2023-09-19T05:40:23;101271.06;;;22.33;74.01
19508;BME280;40157;42.566;27.526;2023-09-19T05:42:23;101277.16;;;22.40;72.91
19508;BME280;40157;42.566;27.526;2023-09-19T05:44:24;101270.75;;;22.46;72.84
19508;BME280;40157;42.566;27.526;2023-09-19T05:46:24;101272.34;;;22.53;72.77
19508;BME280;40157;42.566;27.526;2023-09-19T05:48:29;101271.28;;;22.62;72.40
19508;BME280;40157;42.566;27.526;2023-09-19T05:50:30;101263.09;;;22.66;71.96
19508;BME280;40157;42.566;27.526;2023-09-19T05:52:32;101258.59;;;22.70;71.79
19508;BME280;40157;42.566;27.526;2023-09-19T05:54:33;101268.94;;;22.82;71.39
19508;BME280;40157;42.566;27.526;2023-09-19T05:56:34;101261.59;;;22.90;71.24
19508;BME280;40157;42.566;27.526;2023-09-19T05:58:34;101263.19;;;22.98;70.51
19508;BME280;40157;42.566;27.526;2023-09-19T06:00:35;101262.16;;;23.03;70.27
19508;BME280;40157;42.566;27.526;2023-09-19T06:02:37;101278.81;;;23.15;69.72
19508;BME280;40157;42.566;27.526;2023-09-19T06:04:38;101268.84;;;23.20;69.29
19508;BME280;40157;42.566;27.526;2023-09-19T06:06:41;101274.88;;;23.28;69.31
19508;BME280;40157;42.566;27.526;2023-09-19T06:08:41;101275.53;;;23.36;69.13
19508;BME280;40157;42.566;27.526;2023-09-19T06:10:45;101273.59;;;23.41;68.40
19508;BME280;40157;42.566;27.526;2023-09-19T06:12:47;101274.38;;;23.46;68.59
19508;BME280;40157;42.566;27.526;2023-09-19T06:14:48;101282.09;;;23.57;68.14
19508;BME280;40157;42.566;27.526;2023-09-19T06:16:49;101279.16;;;23.67;68.04
19508;BME280;40157;42.566;27.526;2023-09-19T06:18:49;101281.66;;;23.71;67.64
19508;BME280;40157;42.566;27.526;2023-09-19T06:20:52;101284.16;;;23.77;67.38
19508;BME280;40157;42.566;27.526;2023-09-19T06:22:54;101276.72;;;23.89;67.44
19508;BME280;40157;42.566;27.526;2023-09-19T06:24:54;101281.91;;;23.95;67.10
19508;BME280;40157;42.566;27.526;2023-09-19T06:26:55;101285.16;;;24.05;66.70
19508;BME280;40157;42.566;27.526;2023-09-19T06:28:55;101282.34;;;24.09;66.37
19508;BME280;40157;42.566;27.526;2023-09-19T06:30:56;101288.41;;;24.14;66.35
19508;BME280;40157;42.566;27.526;2023-09-19T06:32:58;101294.50;;;24.19;66.49
19508;BME280;40157;42.566;27.526;2023-09-19T06:34:59;101287.19;;;24.25;65.90
19508;BME280;40157;42.566;27.526;2023-09-19T06:36:59;101297.72;;;24.31;65.36
19508;BME280;40157;42.566;27.526;2023-09-19T06:39:00;101294.03;;;24.35;64.96
19508;BME280;40157;42.566;27.526;2023-09-19T06:41:00;101291.38;;;24.35;64.54
19508;BME280;40157;42.566;27.526;2023-09-19T06:43:01;101292.00;;;24.43;64.39
19508;BME280;40157;42.566;27.526;2023-09-19T06:45:04;101304.25;;;24.50;64.09
19508;BME280;40157;42.566;27.526;2023-09-19T06:47:05;101311.25;;;24.54;64.43
19508;BME280;40157;42.566;27.526;2023-09-19T06:49:07;101302.25;;;24.59;63.83
19508;BME280;40157;42.566;27.526;2023-09-19T06:51:07;101307.59;;;24.59;63.16
19508;BME280;40157;42.566;27.526;2023-09-19T06:53:08;101311.97;;;24.61;63.26
19508;BME280;40157;42.566;27.526;2023-09-19T06:55:10;101320.69;;;24.68;63.84
19508;BME280;40157;42.566;27.526;2023-09-19T06:57:12;101307.31;;;24.66;62.53
19508;BME280;40157;42.566;27.526;2023-09-19T06:59:14;101311.78;;;24.67;62.03
19508;BME280;40157;42.566;27.526;2023-09-19T07:01:14;101321.41;;;24.73;62.53
19508;BME280;40157;42.566;27.526;2023-09-19T07:03:16;101311.53;;;24.75;62.49
19508;BME280;40157;42.566;27.526;2023-09-19T07:05:20;101312.34;;;24.77;61.16
19508;BME280;40157;42.566;27.526;2023-09-19T07:07:21;101322.97;;;24.80;60.82
19508;BME280;40157;42.566;27.526;2023-09-19T07:09:22;101323.75;;;24.84;60.78
19508;BME280;40157;42.566;27.526;2023-09-19T07:11:23;101306.88;;;24.80;61.01
19508;BME280;40157;42.566;27.526;2023-09-19T07:13:23;101324.31;;;24.93;60.55
19508;BME280;40157;42.566;27.526;2023-09-19T07:15:25;101325.94;;;24.98;60.57
19508;BME280;40157;42.566;27.526;2023-09-19T07:17:26;101322.25;;;25.02;59.99
19508;BME280;40157;42.566;27.526;2023-09-19T07:19:28;101334.50;;;25.09;60.67
19508;BME280;40157;42.566;27.526;2023-09-19T07:21:28;101327.47;;;25.06;59.81
19508;BME280;40157;42.566;27.526;2023-09-19T07:23:29;101319.00;;;25.17;59.96
19508;BME280;40157;42.566;27.526;2023-09-19T07:25:30;101321.53;;;25.22;59.57
19508;BME280;40157;42.566;27.526;2023-09-19T07:27:31;101327.66;;;25.27;59.26
19508;BME280;40157;42.566;27.526;2023-09-19T07:29:31;101306.31;;;25.22;58.91
19508;BME280;40157;42.566;27.526;2023-09-19T07:31:32;101325.69;;;25.32;57.94
19508;BME280;40157;42.566;27.526;2023-09-19T07:33:32;101326.53;;;25.33;58.04
19508;BME280;40157;42.566;27.526;2023-09-19T07:35:32;101322.13;;;25.32;58.78
19508;BME280;40157;42.566;27.526;2023-09-19T07:37:34;101328.09;;;25.40;59.08
19508;BME280;40157;42.566;27.526;2023-09-19T07:39:34;101338.00;;;25.38;58.17
19508;BME280;40157;42.566;27.526;2023-09-19T07:41:35;101337.03;;;25.40;58.13
19508;BME280;40157;42.566;27.526;2023-09-19T07:43:36;101330.66;;;25.43;58.13
19508;BME280;40157;42.566;27.526;2023-09-19T07:45:38;101327.75;;;25.49;58.28
19508;BME280;40157;42.566;27.526;2023-09-19T07:47:50;101321.41;;;25.52;58.03
19508;BME280;40157;42.566;27.526;2023-09-19T07:49:51;101332.03;;;25.55;57.60
19508;BME280;40157;42.566;27.526;2023-09-19T07:51:51;101327.53;;;25.55;57.62
19508;BME280;40157;42.566;27.526;2023-09-19T07:53:53;101332.84;;;25.57;57.41
19508;BME280;40157;42.566;27.526;2023-09-19T07:56:07;101335.38;;;25.61;57.49
19508;BME280;40157;42.566;27.526;2023-09-19T07:58:08;101328.94;;;25.65;57.07
19508;BME280;40157;42.566;27.526;2023-09-19T08:00:09;101330.69;;;25.66;57.04
19508;BME280;40157;42.566;27.526;2023-09-19T08:02:10;101330.69;;;25.66;54.79
19508;BME280;40157;42.566;27.526;2023-09-19T08:04:15;101328.81;;;25.69;54.85
19508;BME280;40157;42.566;27.526;2023-09-19T08:06:16;101331.19;;;25.76;55.52
19508;BME280;40157;42.566;27.526;2023-09-19T08:08:17;101319.44;;;25.80;55.17
19508;BME280;40157;42.566;27.526;2023-09-19T08:10:17;101318.31;;;25.86;54.98
19508;BME280;40157;42.566;27.526;2023-09-19T08:12:19;101328.94;;;25.89;54.53
19508;BME280;40157;42.566;27.526;2023-09-19T08:14:24;101315.38;;;25.92;54.32
19508;BME280;40157;42.566;27.526;2023-09-19T08:16:26;101317.06;;;25.96;54.85
19508;BME280;40157;42.566;27.526;2023-09-19T08:18:26;101313.44;;;25.97;54.14
19508;BME280;40157;42.566;27.526;2023-09-19T08:20:30;101308.06;;;25.97;54.00
19508;BME280;40157;42.566;27.526;2023-09-19T08:22:31;101307.13;;;25.98;53.93
19508;BME280;40157;42.566;27.526;2023-09-19T08:24:32;101305.94;;;26.06;54.05
19508;BME280;40157;42.566;27.526;2023-09-19T08:26:33;101298.91;;;26.03;53.65
19508;BME280;40157;42.566;27.526;2023-09-19T08:28:34;101307.59;;;26.10;54.26
19508;BME280;40157;42.566;27.526;2023-09-19T08:30:35;101308.41;;;26.12;54.51
19508;BME280;40157;42.566;27.526;2023-09-19T08:32:35;101305.53;;;26.16;54.90
19508;BME280;40157;42.566;27.526;2023-09-19T08:34:36;101308.84;;;26.23;54.95
19508;BME280;40157;42.566;27.526;2023-09-19T08:36:38;101306.97;;;26.25;54.37
19508;BME280;40157;42.566;27.526;2023-09-19T08:38:39;101298.97;;;26.24;53.81
19508;BME280;40157;42.566;27.526;2023-09-19T08:40:40;101300.84;;;26.21;53.76
19508;BME280;40157;42.566;27.526;2023-09-19T08:42:53;101296.47;;;26.19;54.51
19508;BME280;40157;42.566;27.526;2023-09-19T08:44:55;101291.72;;;26.26;54.08
19508;BME280;40157;42.566;27.526;2023-09-19T08:47:10;101286.84;;;26.35;53.59
19508;BME280;40157;42.566;27.526;2023-09-19T08:49:24;101286.84;;;26.35;53.85
19508;BME280;40157;42.566;27.526;2023-09-19T08:51:43;101299.19;;;26.39;54.39
19508;BME280;40157;42.566;27.526;2023-09-19T08:54:07;101286.47;;;26.45;54.97
19508;BME280;40157;42.566;27.526;2023-09-19T08:56:11;101286.19;;;26.51;54.80
19508;BME280;40157;42.566;27.526;2023-09-19T08:58:14;101284.19;;;26.56;55.26
19508;BME280;40157;42.566;27.526;2023-09-19T09:00:19;101283.19;;;26.58;55.97
19508;BME280;40157;42.566;27.526;2023-09-19T09:02:23;101276.78;;;26.61;55.32
19508;BME280;40157;42.566;27.526;2023-09-19T09:04:24;101283.72;;;26.68;55.48
19508;BME280;40157;42.566;27.526;2023-09-19T09:06:26;101282.75;;;26.69;55.27
19508;BME280;40157;42.566;27.526;2023-09-19T09:08:31;101279.69;;;26.79;55.20
19508;BME280;40157;42.566;27.526;2023-09-19T09:10:31;101275.78;;;26.86;54.77
19508;BME280;40157;42.566;27.526;2023-09-19T09:12:35;101280.03;;;26.91;53.44
19508;BME280;40157;42.566;27.526;2023-09-19T09:14:36;101282.50;;;26.96;53.40
19508;BME280;40157;42.566;27.526;2023-09-19T09:16:38;101274.44;;;26.96;53.29
19508;BME280;40157;42.566;27.526;2023-09-19T09:18:39;101284.81;;;27.05;53.44
19508;BME280;40157;42.566;27.526;2023-09-19T09:20:40;101283.72;;;27.09;53.13
19508;BME280;40157;42.566;27.526;2023-09-19T09:22:51;101274.72;;;27.10;52.60
19508;BME280;40157;42.566;27.526;2023-09-19T09:24:54;101284.38;;;27.14;52.66
19508;BME280;40157;42.566;27.526;2023-09-19T09:26:58;101279.69;;;27.20;52.93
19508;BME280;40157;42.566;27.526;2023-09-19T09:28:58;101275.91;;;27.24;52.83
19508;BME280;40157;42.566;27.526;2023-09-19T09:31:00;101266.91;;;27.25;52.86
19508;BME280;40157;42.566;27.526;2023-09-19T09:33:13;101273.66;;;27.35;52.83
19508;BME280;40157;42.566;27.526;2023-09-19T09:35:15;101278.91;;;27.38;53.16
19508;BME280;40157;42.566;27.526;2023-09-19T09:37:21;101275.53;;;27.33;52.68
19508;BME280;40157;42.566;27.526;2023-09-19T09:39:30;101285.88;;;27.42;53.02
19508;BME280;40157;42.566;27.526;2023-09-19T09:41:36;101287.72;;;27.42;52.55
19508;BME280;40157;42.566;27.526;2023-09-19T09:43:39;101284.56;;;27.32;51.80
19508;BME280;40157;42.566;27.526;2023-09-19T09:45:40;101277.41;;;27.31;52.52
19508;BME280;40157;42.566;27.526;2023-09-19T09:47:48;101280.94;;;27.33;53.24
19508;BME280;40157;42.566;27.526;2023-09-19T09:49:56;101273.50;;;27.38;52.97
19508;BME280;40157;42.566;27.526;2023-09-19T09:52:07;101273.66;;;27.35;51.45
19508;BME280;40157;42.566;27.526;2023-09-19T09:54:18;101273.72;;;27.34;51.62
19508;BME280;40157;42.566;27.526;2023-09-19T09:56:22;101264.53;;;27.38;51.83
19508;BME280;40157;42.566;27.526;2023-09-19T09:58:23;101269.84;;;27.39;51.68
19508;BME280;40157;42.566;27.526;2023-09-19T10:00:29;101261.84;;;27.38;51.65
19508;BME280;40157;42.566;27.526;2023-09-19T10:02:42;101264.25;;;27.44;51.90
19508;BME280;40157;42.566;27.526;2023-09-19T10:04:46;101266.69;;;27.50;51.31
19508;BME280;40157;42.566;27.526;2023-09-19T10:06:59;101253.16;;;27.52;51.73
19508;BME280;40157;42.566;27.526;2023-09-19T10:09:07;101250.97;;;27.60;52.36
19508;BME280;40157;42.566;27.526;2023-09-19T10:11:16;101245.00;;;27.72;51.45
19508;BME280;40157;42.566;27.526;2023-09-19T10:13:17;101238.06;;;27.85;51.38
19508;BME280;40157;42.566;27.526;2023-09-19T10:15:23;101245.75;;;27.95;51.57
19508;BME280;40157;42.566;27.526;2023-09-19T10:17:28;101242.38;;;28.09;51.27
19508;BME280;40157;42.566;27.526;2023-09-19T10:19:51;101235.50;;;28.20;49.15
19508;BME280;40157;42.566;27.526;2023-09-19T10:21:58;101231.94;;;28.20;48.16
19508;BME280;40157;42.566;27.526;2023-09-19T10:24:00;101233.44;;;28.26;48.87
19508;BME280;40157;42.566;27.526;2023-09-19T10:26:03;101231.53;;;28.28;49.01
19508;BME280;40157;42.566;27.526;2023-09-19T10:28:06;101232.28;;;28.31;48.29
19508;BME280;40157;42.566;27.526;2023-09-19T10:30:11;101228.25;;;28.40;49.44
19508;BME280;40157;42.566;27.526;2023-09-19T10:32:14;101222.06;;;28.38;48.47
19508;BME280;40157;42.566;27.526;2023-09-19T10:34:20;101218.22;;;28.42;47.88
19508;BME280;40157;42.566;27.526;2023-09-19T10:36:24;101215.53;;;28.42;49.24
19508;BME280;40157;42.566;27.526;2023-09-19T10:38:28;101215.16;;;28.50;49.14
19508;BME280;40157;42.566;27.526;2023-09-19T10:40:29;101214.47;;;28.64;49.04
19508;BME280;40157;42.566;27.526;2023-09-19T10:42:33;101204.53;;;28.64;47.93
19508;BME280;40157;42.566;27.526;2023-09-19T10:44:38;101223.44;;;28.82;47.47
19508;BME280;40157;42.566;27.526;2023-09-19T10:46:43;101209.22;;;28.78;46.87
19508;BME280;40157;42.566;27.526;2023-09-19T10:48:45;101227.94;;;28.81;47.56